createdAt,value
2019-05-02T00:00:12.195Z,93.60
2019-05-02T00:02:40.615Z,93.50
2019-05-02T00:05:09.963Z,94.00
2019-05-02T00:07:37.680Z,94.00
2019-05-02T00:10:10.069Z,93.90
2019-05-02T00:12:37.706Z,93.60
2019-05-02T00:15:07.045Z,93.70
2019-05-02T00:17:35.018Z,94.00
2019-05-02T00:20:04.233Z,93.90
2019-05-02T00:22:31.863Z,93.90
2019-05-02T00:24:59.606Z,93.70
2019-05-02T00:27:27.238Z,93.80
2019-05-02T00:29:58.675Z,93.60
2019-05-02T00:32:24.275Z,93.70
2019-05-02T00:34:51.943Z,93.30
2019-05-02T00:37:24.463Z,93.50
2019-05-02T00:39:50.408Z,93.00
2019-05-02T00:42:22.431Z,93.30
2019-05-02T00:44:48.310Z,93.30
2019-05-02T00:47:17.755Z,93.30
2019-05-02T00:49:47.071Z,92.70
2019-05-02T00:52:15.065Z,92.20
2019-05-02T00:54:42.735Z,92.10
2019-05-02T00:57:10.379Z,93.10
2019-05-02T00:59:42.379Z,93.30
2019-05-02T01:02:25.752Z,93.30
2019-05-02T01:04:53.486Z,93.10
2019-05-02T01:07:25.512Z,92.70
2019-05-02T01:09:51.339Z,92.70
2019-05-02T01:12:26.087Z,92.90
2019-05-02T01:14:48.363Z,93.00
2019-05-02T01:17:16.003Z,93.40
2019-05-02T01:19:47.271Z,93.20
2019-05-02T01:22:15.854Z,93.20
2019-05-02T01:24:42.427Z,93.10
2019-05-02T01:27:28.351Z,93.10
2019-05-02T01:30:05.925Z,93.30
2019-05-02T01:32:36.978Z,92.70
2019-05-02T01:35:07.156Z,92.40
2019-05-02T01:37:54.978Z,92.90
2019-05-02T01:40:22.388Z,92.90
2019-05-02T01:42:51.079Z,93.00
2019-05-02T01:45:18.840Z,93.00
2019-05-02T01:47:46.479Z,92.80
2019-05-02T01:50:14.143Z,92.90
2019-05-02T01:52:41.853Z,92.70
2019-05-02T01:55:09.876Z,92.90
2019-05-02T01:57:40.018Z,92.80
2019-05-02T02:00:11.381Z,93.00
2019-05-02T02:02:38.969Z,93.00
2019-05-02T02:05:06.703Z,93.10
2019-05-02T02:07:34.369Z,93.30
2019-05-02T02:10:02.300Z,93.00
2019-05-02T02:12:29.938Z,93.00
2019-05-02T02:14:57.603Z,93.10
2019-05-02T02:17:25.246Z,93.20
2019-05-02T02:19:54.559Z,93.20
2019-05-02T02:22:26.610Z,93.40
2019-05-02T02:25:07.956Z,93.70
2019-05-02T02:27:35.600Z,93.70
2019-05-02T02:30:05.041Z,93.80
2019-05-02T02:32:32.693Z,93.40
2019-05-02T02:35:03.426Z,93.40
2019-05-02T02:37:29.712Z,93.20
2019-05-02T02:39:57.347Z,93.00
2019-05-02T02:42:31.248Z,92.30
2019-05-02T02:44:58.710Z,92.70
2019-05-02T02:47:26.371Z,92.90
2019-05-02T02:49:56.133Z,93.10
2019-05-02T02:52:23.410Z,92.80
2019-05-02T02:54:51.107Z,92.50
2019-05-02T02:57:25.678Z,92.80
2019-05-02T02:59:48.152Z,93.50
2019-05-02T03:02:15.825Z,93.50
2019-05-02T03:04:45.956Z,93.70
2019-05-02T03:07:24.033Z,93.60
2019-05-02T03:09:42.452Z,93.70
2019-05-02T03:12:20.553Z,93.50
2019-05-02T03:14:49.832Z,93.70
2019-05-02T03:17:20.546Z,93.80
2019-05-02T03:19:46.863Z,93.80
2019-05-02T03:22:14.605Z,94.10
2019-05-02T03:24:43.939Z,93.90
2019-05-02T03:27:12.544Z,94.00
2019-05-02T03:29:44.060Z,94.30
2019-05-02T03:32:16.180Z,94.10
2019-05-02T03:34:52.372Z,94.20
2019-05-02T03:37:13.537Z,93.90
2019-05-02T03:39:38.065Z,93.90
2019-05-02T03:42:05.807Z,94.00
2019-05-02T03:44:33.444Z,94.10
2019-05-02T03:47:04.676Z,94.00
2019-05-02T03:49:30.544Z,94.10
2019-05-02T03:52:02.671Z,94.30
2019-05-02T03:54:28.438Z,94.00
2019-05-02T03:56:56.135Z,93.90
2019-05-02T03:59:37.259Z,94.00
2019-05-02T04:01:53.933Z,94.10
2019-05-02T04:04:22.750Z,94.20
2019-05-02T04:06:55.097Z,94.10
2019-05-02T04:09:32.094Z,94.30
2019-05-02T04:11:58.819Z,94.40
2019-05-02T04:14:37.569Z,94.40
2019-05-02T04:16:57.439Z,94.70
2019-05-02T04:19:28.681Z,94.20
2019-05-02T04:22:01.660Z,94.10
2019-05-02T04:24:25.289Z,93.70
2019-05-02T04:26:56.158Z,93.40
2019-05-02T04:29:24.685Z,93.80
2019-05-02T04:31:52.079Z,94.30
2019-05-02T04:34:19.731Z,94.40
2019-05-02T04:36:59.838Z,94.40
2019-05-02T04:39:21.200Z,94.20
2019-05-02T04:41:48.570Z,94.10
2019-05-02T04:44:15.502Z,94.20
2019-05-02T04:46:43.384Z,94.00
2019-05-02T04:49:11.052Z,93.90
2019-05-02T04:51:38.697Z,94.00
2019-05-02T04:54:09.005Z,94.10
2019-05-02T04:56:42.223Z,93.80
2019-05-02T04:59:13.939Z,93.60
2019-05-02T05:01:43.344Z,94.00
2019-05-02T05:04:04.258Z,93.80
2019-05-02T05:06:32.331Z,93.90
2019-05-02T05:09:04.144Z,93.80
2019-05-02T05:11:29.374Z,93.90
2019-05-02T05:14:00.248Z,94.40
2019-05-02T05:16:28.494Z,93.50
2019-05-02T05:18:57.815Z,93.70
2019-05-02T05:21:26.708Z,93.70
2019-05-02T05:23:59.698Z,93.90
2019-05-02T05:26:27.670Z,93.90
2019-05-02T05:28:55.503Z,93.60
2019-05-02T05:31:24.271Z,93.40
2019-05-02T05:33:52.528Z,93.20
2019-05-02T05:36:29.246Z,93.70
2019-05-02T05:38:49.560Z,92.80
2019-05-02T05:41:22.743Z,93.40
2019-05-02T05:43:50.071Z,92.20
2019-05-02T05:46:17.829Z,92.40
2019-05-02T05:48:45.342Z,91.70
2019-05-02T05:51:18.984Z,91.50
2019-05-02T05:53:42.376Z,91.10
2019-05-02T05:56:10.020Z,90.90
2019-05-02T05:58:39.848Z,90.50
2019-05-02T06:01:10.120Z,90.50
2019-05-02T06:03:41.905Z,90.20
2019-05-02T06:06:07.901Z,89.60
2019-05-02T06:08:35.271Z,89.50
2019-05-02T06:11:02.908Z,89.30
2019-05-02T06:13:30.579Z,89.20
2019-05-02T06:16:02.633Z,89.00
2019-05-02T06:18:28.474Z,88.40
2019-05-02T06:20:58.422Z,87.90
2019-05-02T06:23:25.677Z,87.40
2019-05-02T06:25:53.294Z,87.30
2019-05-02T06:28:20.965Z,87.10
2019-05-02T06:30:48.601Z,86.60
2019-05-02T06:33:16.267Z,86.50
2019-05-02T06:35:43.911Z,85.50
2019-05-02T06:38:11.647Z,85.70
2019-05-02T06:40:44.145Z,85.50
2019-05-02T06:43:09.672Z,84.60
2019-05-02T06:45:39.657Z,84.70
2019-05-02T06:48:07.483Z,83.80
2019-05-02T06:50:38.855Z,82.10
2019-05-02T06:53:09.456Z,83.50
2019-05-02T06:55:36.521Z,83.00
2019-05-02T06:58:07.746Z,82.90
2019-05-02T07:00:38.479Z,80.90
2019-05-02T07:03:04.910Z,80.00
2019-05-02T07:05:31.463Z,81.80
2019-05-02T07:07:59.128Z,80.50
2019-05-02T07:10:29.782Z,80.30
2019-05-02T07:13:09.419Z,79.40
2019-05-02T07:15:33.649Z,79.80
2019-05-02T07:18:05.448Z,79.80
2019-05-02T07:20:35.212Z,80.50
2019-05-02T07:23:02.745Z,80.40
2019-05-02T07:25:30.410Z,79.30
2019-05-02T07:27:58.061Z,80.80
2019-05-02T07:30:30.119Z,79.00
2019-05-02T07:32:56.296Z,77.70
2019-05-02T07:35:25.883Z,78.60
2019-05-02T07:37:53.718Z,77.90
2019-05-02T07:40:21.523Z,78.60
2019-05-02T07:42:49.194Z,76.90
2019-05-02T07:45:16.979Z,76.80
2019-05-02T07:47:44.623Z,78.60
2019-05-02T07:50:13.061Z,77.60
2019-05-02T07:52:41.332Z,76.90
2019-05-02T07:55:10.225Z,78.80
2019-05-02T07:57:38.006Z,78.50
2019-05-02T08:00:09.635Z,76.10
2019-05-02T08:02:37.279Z,74.40
2019-05-02T08:05:05.123Z,74.90
2019-05-02T08:07:34.357Z,76.10
2019-05-02T08:10:02.587Z,75.80
2019-05-02T08:12:30.231Z,70.30
2019-05-02T08:15:00.275Z,70.90
2019-05-02T08:17:27.279Z,68.60
2019-05-02T08:19:54.941Z,70.50
2019-05-02T08:22:22.585Z,68.80
2019-05-02T08:24:50.253Z,73.20
2019-05-02T08:30:11.935Z,72.30
2019-05-02T08:32:39.571Z,70.50
2019-05-02T08:35:07.506Z,69.20
2019-05-02T08:37:40.448Z,72.80
2019-05-02T08:40:10.526Z,67.70
2019-05-02T08:42:35.506Z,68.30
2019-05-02T08:45:04.544Z,70.20
2019-05-02T08:47:32.174Z,66.20
2019-05-02T08:49:59.838Z,70.10
2019-05-02T08:52:27.494Z,67.60
2019-05-02T08:54:55.283Z,70.00
2019-05-02T08:57:23.836Z,70.90
2019-05-02T08:59:55.419Z,64.40
2019-05-02T09:02:25.883Z,63.60
2019-05-02T09:04:58.277Z,67.40
2019-05-02T09:07:20.529Z,65.70
2019-05-02T09:09:48.275Z,68.40
2019-05-02T09:12:15.945Z,67.40
2019-05-02T09:14:43.577Z,66.40
2019-05-02T09:17:16.239Z,62.20
2019-05-02T09:19:42.739Z,66.60
2019-05-02T09:22:13.232Z,66.00
2019-05-02T09:24:42.355Z,64.80
2019-05-02T09:27:08.818Z,63.10
2019-05-02T09:29:37.300Z,64.00
2019-05-02T09:32:05.847Z,63.70
2019-05-02T09:34:33.491Z,60.40
2019-05-02T09:37:02.682Z,59.60
2019-05-02T09:39:34.712Z,60.50
2019-05-02T09:42:02.014Z,56.50
2019-05-02T09:44:29.236Z,54.40
2019-05-02T09:46:57.210Z,58.20
2019-05-02T09:49:25.014Z,55.20
2019-05-02T09:51:59.353Z,54.90
2019-05-02T09:54:23.099Z,57.70
2019-05-02T09:56:52.342Z,54.20
2019-05-02T09:59:27.762Z,53.80
2019-05-02T10:01:52.696Z,52.30
2019-05-02T10:04:22.433Z,51.30
2019-05-02T10:06:52.302Z,47.30
2019-05-02T10:09:24.278Z,47.00
2019-05-02T10:11:48.847Z,50.50
2019-05-02T10:14:16.486Z,46.00
2019-05-02T10:16:44.172Z,49.80
2019-05-02T10:19:13.553Z,48.70
2019-05-02T10:21:42.221Z,51.10
2019-05-02T10:24:09.979Z,49.70
2019-05-02T10:26:37.950Z,49.10
2019-05-02T10:29:05.592Z,46.90
2019-05-02T10:31:37.474Z,49.60
2019-05-02T10:34:02.655Z,49.70
2019-05-02T10:36:32.396Z,47.40
2019-05-02T10:39:01.642Z,47.40
2019-05-02T10:41:33.506Z,47.50
2019-05-02T10:43:59.629Z,47.50
2019-05-02T10:46:37.772Z,49.70
2019-05-02T10:49:22.672Z,47.30
2019-05-02T10:51:53.830Z,47.10
2019-05-02T10:54:23.088Z,47.10
2019-05-02T10:56:51.831Z,50.10
2019-05-02T10:59:19.575Z,45.20
2019-05-02T11:02:02.499Z,44.90
2019-05-02T11:04:32.438Z,45.50
2019-05-02T11:07:02.489Z,45.40
2019-05-02T11:09:31.793Z,44.90
2019-05-02T11:11:59.604Z,44.30
2019-05-02T11:14:42.188Z,47.90
2019-05-02T11:17:23.551Z,46.60
2019-05-02T11:20:02.086Z,48.20
2019-05-02T11:22:29.823Z,47.50
2019-05-02T11:24:57.459Z,47.70
2019-05-02T11:27:25.132Z,45.70
2019-05-02T11:29:52.770Z,47.40
2019-05-02T11:32:22.104Z,44.00
2019-05-02T11:34:52.287Z,45.70
2019-05-02T11:37:19.506Z,47.40
2019-05-02T11:39:52.455Z,43.20
2019-05-02T11:42:17.625Z,46.90
2019-05-02T11:44:46.241Z,43.50
2019-05-02T11:47:17.348Z,45.70
2019-05-02T11:49:46.757Z,46.80
2019-05-02T11:52:12.687Z,41.50
2019-05-02T11:54:46.839Z,40.90
2019-05-02T11:57:11.506Z,40.70
2019-05-02T11:59:39.339Z,44.80
2019-05-02T12:05:22.180Z,41.50
2019-05-02T12:07:49.983Z,42.10
2019-05-02T12:10:17.636Z,43.40
2019-05-02T12:12:45.311Z,43.10
2019-05-02T12:15:13.024Z,45.10
2019-05-02T12:17:41.978Z,43.20
2019-05-02T12:20:11.753Z,42.20
2019-05-02T12:22:39.199Z,43.30
2019-05-02T12:25:06.911Z,43.10
2019-05-02T12:27:34.551Z,42.30
2019-05-02T12:30:03.367Z,42.50
2019-05-02T12:32:33.140Z,39.40
2019-05-02T12:35:02.462Z,42.80
2019-05-02T12:37:29.947Z,42.00
2019-05-02T12:39:57.955Z,42.00
2019-05-02T12:42:26.117Z,47.90
2019-05-02T12:44:54.085Z,44.20
2019-05-02T12:47:22.550Z,43.00
2019-05-02T12:49:51.899Z,43.70
2019-05-02T12:52:19.804Z,42.50
2019-05-02T12:54:47.471Z,44.20
2019-05-02T12:57:15.175Z,45.60
2019-05-02T12:59:42.857Z,43.60
2019-05-02T13:02:12.250Z,44.40
2019-05-02T13:04:41.826Z,44.20
2019-05-02T13:07:09.376Z,43.60
2019-05-02T13:09:37.112Z,42.50
2019-05-02T13:12:13.296Z,42.50
2019-05-02T13:14:42.355Z,42.80
2019-05-02T13:17:11.981Z,41.10
2019-05-02T13:19:41.511Z,43.40
2019-05-02T13:22:25.984Z,40.70
2019-05-02T13:24:56.367Z,42.80
2019-05-02T13:27:24.184Z,43.00
2019-05-02T13:29:52.553Z,42.10
2019-05-02T13:32:32.105Z,40.90
2019-05-02T13:35:03.987Z,42.20
2019-05-02T13:37:31.856Z,45.00
2019-05-02T13:40:02.608Z,43.00
2019-05-02T13:42:30.416Z,43.70
2019-05-02T13:45:02.140Z,43.20
2019-05-02T13:47:29.155Z,40.90
2019-05-02T13:50:00.739Z,41.10
2019-05-02T13:52:27.114Z,42.30
2019-05-02T13:54:54.779Z,43.30
2019-05-02T13:57:22.495Z,44.30
2019-05-02T13:59:52.379Z,43.00
2019-05-02T14:02:33.536Z,42.20
2019-05-02T14:05:02.291Z,43.00
2019-05-02T14:07:32.481Z,44.30
2019-05-02T14:10:02.487Z,43.80
2019-05-02T14:12:32.088Z,40.60
2019-05-02T14:14:59.780Z,42.40
2019-05-02T14:17:27.427Z,40.50
2019-05-02T14:20:07.685Z,41.30
2019-05-02T14:22:24.482Z,43.90
2019-05-02T14:24:52.164Z,39.40
2019-05-02T14:27:19.871Z,41.60
2019-05-02T14:29:47.779Z,40.70
2019-05-02T14:32:23.228Z,40.60
2019-05-02T14:34:49.766Z,41.30
2019-05-02T14:37:17.399Z,42.20
2019-05-02T14:39:46.945Z,40.80
2019-05-02T14:42:21.243Z,39.30
2019-05-02T14:45:03.583Z,40.10
2019-05-02T14:47:18.193Z,39.80
2019-05-02T14:49:42.975Z,40.40
2019-05-02T14:52:12.660Z,40.90
2019-05-02T14:54:43.893Z,43.40
2019-05-02T14:57:11.984Z,41.80
2019-05-02T14:59:39.787Z,45.50
2019-05-02T15:02:09.142Z,45.30
2019-05-02T15:04:38.273Z,41.40
2019-05-02T15:07:06.321Z,40.20
2019-05-02T15:09:36.087Z,40.40
2019-05-02T15:12:08.669Z,44.00
2019-05-02T15:14:33.591Z,44.20
2019-05-02T15:17:02.567Z,41.50
2019-05-02T15:19:32.690Z,44.40
2019-05-02T15:22:01.961Z,45.80
2019-05-02T15:24:33.440Z,42.90
2019-05-02T15:27:03.645Z,42.00
2019-05-02T15:29:28.377Z,43.50
2019-05-02T15:32:07.097Z,41.20
2019-05-02T15:34:47.868Z,44.50
2019-05-02T15:37:16.914Z,44.20
2019-05-02T15:42:17.828Z,45.20
2019-05-02T15:44:43.534Z,44.40
2019-05-02T15:47:12.443Z,45.30
2019-05-02T15:49:44.894Z,44.80
2019-05-02T15:52:14.400Z,45.40
2019-05-02T15:54:42.601Z,44.10
2019-05-02T15:57:12.373Z,44.40
2019-05-02T15:59:43.206Z,44.70
2019-05-02T16:02:12.792Z,46.40
2019-05-02T16:04:41.755Z,46.00
2019-05-02T16:07:09.612Z,46.40
2019-05-02T16:09:37.262Z,46.80
2019-05-02T16:12:04.999Z,46.30
2019-05-02T16:14:36.016Z,46.20
2019-05-02T16:17:03.751Z,45.80
2019-05-02T16:19:33.203Z,47.00
2019-05-02T16:22:06.358Z,46.50
2019-05-02T16:24:32.311Z,44.90
2019-05-02T16:27:01.597Z,46.40
2019-05-02T16:29:29.400Z,42.80
2019-05-02T16:32:03.608Z,41.60
2019-05-02T16:34:33.814Z,42.50
2019-05-02T16:37:16.554Z,43.70
2019-05-02T16:39:49.275Z,43.80
2019-05-02T16:42:12.436Z,42.30
2019-05-02T16:44:42.747Z,42.30
2019-05-02T16:47:10.644Z,41.90
2019-05-02T16:49:38.302Z,42.80
2019-05-02T16:52:08.405Z,44.50
2019-05-02T16:54:41.570Z,45.20
2019-05-02T16:57:04.811Z,46.10
2019-05-02T16:59:34.358Z,43.80
2019-05-02T17:02:07.630Z,44.80
2019-05-02T17:04:31.932Z,44.70
2019-05-02T17:07:05.622Z,47.50
2019-05-02T17:09:44.886Z,49.10
2019-05-02T17:12:15.314Z,50.40
2019-05-02T17:14:51.523Z,50.50
2019-05-02T17:17:13.339Z,50.30
2019-05-02T17:19:40.991Z,50.70
2019-05-02T17:22:08.987Z,51.20
2019-05-02T17:24:36.631Z,50.90
2019-05-02T17:27:04.576Z,51.00
2019-05-02T17:29:32.216Z,56.40
2019-05-02T17:31:59.895Z,57.60
2019-05-02T17:34:30.638Z,55.30
2019-05-02T17:36:59.175Z,55.00
2019-05-02T17:39:26.299Z,54.00
2019-05-02T17:41:53.972Z,54.10
2019-05-02T17:44:24.483Z,54.80
2019-05-02T17:46:58.400Z,54.50
2019-05-02T17:49:23.682Z,55.70
2019-05-02T17:52:11.223Z,56.60
2019-05-02T17:54:37.554Z,56.40
2019-05-02T17:57:05.296Z,57.00
2019-05-02T17:59:34.414Z,57.10
2019-05-02T18:02:06.592Z,58.90
2019-05-02T18:04:32.483Z,58.10
2019-05-02T18:07:00.355Z,58.60
2019-05-02T18:09:31.598Z,57.00
2019-05-02T18:11:57.474Z,61.50
2019-05-02T18:14:25.114Z,62.90
2019-05-02T18:16:55.609Z,64.00
2019-05-02T18:19:24.602Z,65.50
2019-05-02T18:21:52.597Z,66.00
2019-05-02T18:24:22.188Z,66.70
2019-05-02T18:26:51.683Z,66.10
2019-05-02T18:29:19.466Z,66.50
2019-05-02T18:31:47.646Z,66.10
2019-05-02T18:34:21.051Z,65.10
2019-05-02T18:36:44.823Z,64.70
2019-05-02T18:39:12.995Z,67.30
2019-05-02T18:41:44.724Z,67.50
2019-05-02T18:44:11.831Z,66.80
2019-05-02T18:46:41.517Z,65.40
2019-05-02T18:49:09.051Z,66.10
2019-05-02T18:51:36.691Z,67.00
2019-05-02T18:54:07.453Z,69.30
2019-05-02T18:56:41.204Z,67.80
2019-05-02T18:59:03.212Z,70.50
2019-05-02T19:01:52.691Z,70.30
2019-05-02T19:04:19.584Z,68.50
2019-05-02T19:06:47.224Z,68.10
2019-05-02T19:09:17.429Z,68.70
2019-05-02T19:11:44.271Z,70.50
2019-05-02T19:14:16.634Z,71.10
2019-05-02T19:16:42.622Z,70.70
2019-05-02T19:19:12.443Z,71.40
2019-05-02T19:21:39.829Z,72.80
2019-05-02T19:24:07.496Z,72.30
2019-05-02T19:26:35.144Z,73.00
2019-05-02T19:29:14.323Z,72.90
2019-05-02T19:31:45.993Z,72.90
2019-05-02T19:34:16.331Z,71.30
2019-05-02T19:36:43.050Z,73.00
2019-05-02T19:39:10.421Z,72.80
2019-05-02T19:41:38.955Z,72.60
2019-05-02T19:44:07.802Z,70.20
2019-05-02T19:46:38.843Z,68.30
2019-05-02T19:49:06.811Z,65.10
2019-05-02T19:51:34.635Z,59.80
2019-05-02T19:54:05.455Z,57.00
2019-05-02T19:56:33.450Z,54.70
2019-05-02T19:59:02.678Z,52.10
2019-05-02T20:01:30.458Z,52.40
2019-05-02T20:04:02.380Z,52.50
2019-05-02T20:06:27.860Z,51.20
2019-05-02T20:08:59.158Z,52.00
2019-05-02T20:11:28.125Z,52.20
2019-05-02T20:13:54.299Z,53.00
2019-05-02T20:16:27.552Z,53.50
2019-05-02T20:18:55.223Z,54.40
2019-05-02T20:21:27.806Z,54.70
2019-05-02T20:23:53.913Z,54.90
2019-05-02T20:26:22.146Z,56.10
2019-05-02T20:28:50.003Z,57.00
2019-05-02T20:31:17.643Z,58.00
2019-05-02T20:33:45.310Z,58.60
2019-05-02T20:36:12.966Z,60.20
2019-05-02T20:38:41.826Z,61.20
2019-05-02T20:41:09.664Z,62.30
2019-05-02T20:43:37.307Z,62.90
2019-05-02T20:46:05.295Z,63.10
2019-05-02T20:48:32.943Z,64.70
2019-05-02T20:51:02.524Z,66.20
2019-05-02T20:53:31.870Z,65.70
2019-05-02T20:56:01.585Z,67.50
2019-05-02T20:58:28.807Z,68.20
2019-05-02T21:01:05.429Z,70.80
2019-05-02T21:03:25.843Z,72.00
2019-05-02T21:06:13.339Z,73.10
2019-05-02T21:08:48.682Z,74.60
2019-05-02T21:11:16.372Z,76.70
2019-05-02T21:13:44.091Z,77.10
2019-05-02T21:16:12.386Z,78.70
2019-05-02T21:18:42.194Z,78.40
2019-05-02T21:21:09.670Z,79.80
2019-05-02T21:23:46.464Z,80.30
2019-05-02T21:26:06.713Z,80.50
2019-05-02T21:28:34.394Z,80.90
2019-05-02T21:31:02.913Z,81.60
2019-05-02T21:33:32.383Z,82.20
2019-05-02T21:36:00.089Z,83.50
2019-05-02T21:38:27.759Z,84.60
2019-05-02T21:40:55.427Z,83.80
2019-05-02T21:43:23.067Z,85.50
2019-05-02T21:45:51.642Z,84.20
2019-05-02T21:48:19.535Z,85.60
2019-05-02T21:50:58.271Z,87.40
2019-05-02T21:53:27.551Z,88.60
2019-05-02T21:55:56.867Z,86.90
2019-05-02T21:58:24.507Z,87.30
2019-05-02T22:00:58.211Z,88.60
2019-05-02T22:03:25.882Z,88.80
2019-05-02T22:05:53.535Z,90.10
2019-05-02T22:08:21.665Z,88.80
2019-05-02T22:10:49.433Z,88.90
2019-05-02T22:13:17.099Z,89.40
2019-05-02T22:15:45.638Z,90.60
2019-05-02T22:18:13.375Z,89.80
2019-05-02T22:20:42.741Z,90.40
2019-05-02T22:23:11.812Z,90.20
2019-05-02T22:25:41.866Z,90.50
2019-05-02T22:28:09.350Z,90.40
2019-05-02T22:30:37.023Z,90.80
2019-05-02T22:33:04.671Z,90.30
2019-05-02T22:35:32.319Z,90.50
2019-05-02T22:38:11.717Z,90.80
2019-05-02T22:40:41.717Z,90.30
2019-05-02T22:43:09.214Z,90.40
2019-05-02T22:45:36.843Z,90.80
2019-05-02T22:48:04.514Z,89.10
2019-05-02T22:50:32.555Z,90.10
2019-05-02T22:53:00.315Z,89.60
2019-05-02T22:55:27.968Z,89.70
2019-05-02T22:57:55.607Z,88.40
2019-05-02T23:00:23.420Z,87.10
2019-05-02T23:02:52.455Z,88.10
2019-05-02T23:05:20.324Z,88.10
2019-05-02T23:07:47.990Z,87.40
2019-05-02T23:10:15.971Z,88.80
2019-05-02T23:12:43.622Z,87.60
2019-05-02T23:15:12.554Z,87.50
2019-05-02T23:17:40.408Z,87.70
2019-05-02T23:20:08.221Z,88.90
2019-05-02T23:22:35.899Z,89.50
2019-05-02T23:25:22.678Z,88.80
2019-05-02T23:27:52.095Z,90.30
2019-05-02T23:30:22.523Z,90.00
2019-05-02T23:32:51.695Z,90.80
2019-05-02T23:35:19.483Z,90.50
2019-05-02T23:37:47.122Z,90.70
2019-05-02T23:40:15.135Z,91.00
2019-05-02T23:42:42.808Z,90.90
2019-05-02T23:45:12.098Z,91.40
2019-05-02T23:47:39.895Z,91.80
2019-05-02T23:50:08.015Z,91.40
2019-05-02T23:52:35.658Z,90.70
2019-05-02T23:55:04.503Z,91.10
2019-05-02T23:57:32.564Z,90.80
